»·PEaware :: SWA4161 KMDW-KDAL

SWA4161 :: KMDW-KDAL

FLIGHT INFORMATION

Flight Status: Arrived
Operator:
Southwest Airlines
More flights by this operator :: More flights under this callsign
Pilot: Gregory P. (35)
Aircraft: BOEING 737-700
(B737)
More flights by this aircraft type
Origin: KMDW Chicago-Midway
United States
Destination: KDAL Dallas Love
United States
More flights between these airports :: More routes between these airports
Route: ACITO ADELL ARLYN STL FSM CAMAL HIBIL3
File this flight plan on PilotEdge
Remarks: PIC GREGORY PFEIL
Altitude:
(Current/Filed)
38,000ft
Speed:
(Current/Filed)
450kts
Departed: 24-Mar-20 03:10 PM
Arrived: 24-Mar-20 05:14 PM
Distance/Time
Traveled:
689nm/2:04
Distance/Time
To Go:
Arrived

Flight Plot

Page will automatically refresh every two minutes.

Flight plan parsing failed; only flown route is shown


Map Options




Map Legend


Flown Route
Filed Route
Departure Airport
Arrival Airport
Navaid (VOR, NDB)
Fix

Horizontal Profiles

Position Reports

Time Latitude Longitude Heading Altitude Ground
Speed
24-Mar-20 14:58 41.788708 -87.743591 175 627ft 0kts
24-Mar-20 14:59 41.788708 -87.743591 175 627ft 0kts
24-Mar-20 15:00 41.788708 -87.743591 175 627ft 0kts
24-Mar-20 15:01 41.788708 -87.743591 175 627ft 0kts
24-Mar-20 15:02 41.788708 -87.743591 175 628ft 0kts
24-Mar-20 15:03 41.788773 -87.743597 175 628ft 2kts
24-Mar-20 15:05 41.789262 -87.743839 121 628ft 2kts
24-Mar-20 15:06 41.789215 -87.744517 43 628ft 0kts
24-Mar-20 15:07 41.789165 -87.744573 40 628ft 0kts
24-Mar-20 15:08 41.789425 -87.744267 41 628ft 8kts
24-Mar-20 15:09 41.790235 -87.743300 41 628ft 0kts
24-Mar-20 15:10 41.789279 -87.746342 222 628ft 91kts
24-Mar-20 15:11 41.755817 -87.786233 213 2529ft 197kts
24-Mar-20 15:12 41.705510 -87.839734 218 5277ft 259kts
24-Mar-20 15:13 41.652192 -87.899450 220 8754ft 270kts
24-Mar-20 15:14 41.587151 -87.972224 221 11377ft 318kts
24-Mar-20 15:15 41.517805 -88.049814 222 14675ft 332kts
24-Mar-20 15:16 41.445801 -88.130457 223 17932ft 344kts
24-Mar-20 15:17 41.363837 -88.199975 202 20866ft 364kts
24-Mar-20 15:18 41.266257 -88.242586 203 23483ft 376kts
24-Mar-20 15:19 41.165572 -88.287785 203 25864ft 387kts
24-Mar-20 15:20 41.062701 -88.333661 204 28112ft 394kts
24-Mar-20 15:21 40.957822 -88.380467 204 30091ft 402kts
24-Mar-20 15:22 40.852074 -88.427640 205 32006ft 407kts
24-Mar-20 15:23 40.745347 -88.475270 206 34000ft 405kts
24-Mar-20 15:23 40.656465 -88.514939 206 35561ft 402kts
24-Mar-20 15:25 40.533125 -88.570021 206 37377ft 400kts
24-Mar-20 15:26 40.426786 -88.617571 206 38049ft 415kts
24-Mar-20 15:26 40.341250 -88.667800 215 38058ft 405kts
24-Mar-20 15:27 40.250777 -88.753006 225 38057ft 398kts
24-Mar-20 15:29 40.155585 -88.866869 228 38052ft 396kts
24-Mar-20 15:29 40.088808 -88.949523 228 38038ft 396kts
24-Mar-20 15:30 40.008616 -89.048830 229 38028ft 397kts
24-Mar-20 15:31 39.928533 -89.148111 229 38025ft 396kts
24-Mar-20 15:32 39.848455 -89.247505 229 38018ft 397kts
24-Mar-20 15:33 39.768436 -89.346922 229 38018ft 397kts
24-Mar-20 15:34 39.688334 -89.446566 229 38024ft 397kts
24-Mar-20 15:35 39.608685 -89.545746 230 38022ft 397kts
24-Mar-20 15:36 39.529139 -89.644905 230 38019ft 396kts
24-Mar-20 15:37 39.449745 -89.743904 229 38031ft 398kts
24-Mar-20 15:38 39.370158 -89.843335 229 38018ft 397kts
24-Mar-20 15:39 39.290410 -89.943076 229 38004ft 397kts
24-Mar-20 15:40 39.211023 -90.042477 230 38001ft 398kts
24-Mar-20 15:41 39.131744 -90.141849 230 38007ft 397kts
24-Mar-20 15:42 39.052413 -90.241393 230 38014ft 397kts
24-Mar-20 15:43 38.973877 -90.340014 232 38007ft 390kts
24-Mar-20 15:44 38.897734 -90.435767 234 38006ft 382kts
24-Mar-20 15:45 38.819554 -90.529236 230 37995ft 386kts
24-Mar-20 15:46 38.736487 -90.617697 230 37975ft 386kts
24-Mar-20 15:47 38.653826 -90.706217 230 37987ft 387kts
24-Mar-20 15:48 38.571222 -90.794806 230 37985ft 386kts
24-Mar-20 15:49 38.488789 -90.883314 230 37984ft 386kts
24-Mar-20 15:50 38.406361 -90.971910 230 37982ft 387kts
24-Mar-20 15:51 38.324147 -91.060341 231 37981ft 385kts
24-Mar-20 15:52 38.242382 -91.148385 231 37980ft 384kts
24-Mar-20 15:53 38.160893 -91.236204 231 37978ft 383kts
24-Mar-20 15:54 38.079530 -91.323975 231 37976ft 383kts
24-Mar-20 15:55 37.998282 -91.411712 231 37975ft 383kts
24-Mar-20 15:56 37.917161 -91.499381 232 37974ft 383kts
24-Mar-20 15:57 37.836016 -91.587168 232 37968ft 383kts
24-Mar-20 15:58 37.754965 -91.674898 231 37987ft 385kts
24-Mar-20 15:59 37.673695 -91.762868 231 37968ft 381kts
24-Mar-20 16:00 37.592880 -91.850562 231 37957ft 383kts
24-Mar-20 16:01 37.512242 -91.938108 231 37956ft 382kts
24-Mar-20 16:02 37.431066 -92.026319 231 37954ft 382kts
24-Mar-20 16:03 37.350582 -92.113860 232 37951ft 382kts
24-Mar-20 16:04 37.269922 -92.201672 232 37956ft 382kts
24-Mar-20 16:05 37.189529 -92.289270 232 37956ft 382kts
24-Mar-20 16:06 37.109333 -92.376717 232 37940ft 381kts
24-Mar-20 16:07 37.030557 -92.462845 234 37941ft 369kts
24-Mar-20 16:08 36.954251 -92.546331 234 37928ft 359kts
24-Mar-20 16:09 36.878622 -92.629091 235 37919ft 360kts
24-Mar-20 16:10 36.803111 -92.711535 234 37946ft 361kts
24-Mar-20 16:11 36.727506 -92.794304 234 37951ft 361kts
24-Mar-20 16:12 36.652148 -92.876889 235 37955ft 360kts
24-Mar-20 16:13 36.576548 -92.959805 235 37954ft 360kts
24-Mar-20 16:14 36.501021 -93.042732 237 37976ft 368kts
24-Mar-20 16:15 36.424179 -93.127128 237 37969ft 367kts
24-Mar-20 16:16 36.347597 -93.211343 237 37967ft 366kts
24-Mar-20 16:17 36.271161 -93.295511 237 37967ft 369kts
24-Mar-20 16:18 36.194459 -93.379951 237 37965ft 368kts
24-Mar-20 16:19 36.118199 -93.463997 237 37963ft 366kts
24-Mar-20 16:20 36.042056 -93.547993 237 37961ft 366kts
24-Mar-20 16:21 35.965951 -93.632043 237 37952ft 368kts
24-Mar-20 16:22 35.889699 -93.716097 237 37949ft 368kts
24-Mar-20 16:23 35.813697 -93.800102 237 37938ft 367kts
24-Mar-20 16:24 35.737347 -93.884617 237 37936ft 369kts
24-Mar-20 16:25 35.661111 -93.969015 237 37935ft 367kts
24-Mar-20 16:26 35.584909 -94.053489 237 37928ft 368kts
24-Mar-20 16:27 35.509113 -94.137541 237 37919ft 367kts
24-Mar-20 16:28 35.433427 -94.221582 237 37912ft 366kts
24-Mar-20 16:29 35.352270 -94.301067 230 37918ft 380kts
24-Mar-20 16:30 35.263301 -94.372322 229 37915ft 384kts
24-Mar-20 16:31 35.174088 -94.443856 229 37912ft 381kts
24-Mar-20 16:32 35.085306 -94.515151 230 37909ft 381kts
24-Mar-20 16:33 34.996273 -94.586682 229 37906ft 382kts
24-Mar-20 16:34 34.907725 -94.657816 228 37920ft 382kts
24-Mar-20 16:35 34.819357 -94.728739 228 37922ft 381kts
24-Mar-20 16:36 34.730754 -94.800017 228 37921ft 381kts
24-Mar-20 16:37 34.647950 -94.876141 233 37920ft 371kts
24-Mar-20 16:38 34.567284 -94.954807 233 37918ft 372kts
24-Mar-20 16:39 34.486508 -95.033448 233 37885ft 371kts
24-Mar-20 16:40 34.406165 -95.111768 233 37864ft 375kts
24-Mar-20 16:41 34.324935 -95.190928 233 37878ft 377kts
24-Mar-20 16:42 34.243204 -95.270962 233 36978ft 378kts
24-Mar-20 16:43 34.163296 -95.349233 233 34419ft 377kts
24-Mar-20 16:44 34.080475 -95.430470 232 31489ft 393kts
24-Mar-20 16:45 33.993590 -95.515560 231 28638ft 403kts
24-Mar-20 16:46 33.910235 -95.595064 230 26470ft 363kts
24-Mar-20 16:47 33.831013 -95.671044 229 24404ft 360kts
24-Mar-20 16:48 33.752476 -95.746059 228 22242ft 360kts
24-Mar-20 16:49 33.675639 -95.819386 227 20110ft 346kts
24-Mar-20 16:50 33.599077 -95.892684 225 18025ft 357kts
24-Mar-20 16:51 33.523609 -95.964780 225 16040ft 339kts
24-Mar-20 16:52 33.451121 -96.034159 223 14143ft 339kts
24-Mar-20 16:53 33.377574 -96.104008 222 12141ft 331kts
24-Mar-20 16:54 33.318210 -96.180693 247 10616ft 286kts
24-Mar-20 16:55 33.288617 -96.262541 250 9998ft 269kts
24-Mar-20 16:56 33.258314 -96.342386 238 9030ft 274kts
24-Mar-20 16:57 33.209523 -96.416560 235 9002ft 284kts
24-Mar-20 16:58 33.148538 -96.476275 202 8566ft 292kts
24-Mar-20 16:59 33.071506 -96.499619 187 7262ft 283kts
24-Mar-20 17:00 32.993549 -96.498501 183 5952ft 276kts
24-Mar-20 17:01 32.918584 -96.495647 183 4672ft 260kts
24-Mar-20 17:02 32.850591 -96.492841 183 3990ft 229kts
24-Mar-20 17:03 32.792820 -96.509333 214 3968ft 214kts
24-Mar-20 17:04 32.745244 -96.540627 215 3343ft 190kts
24-Mar-20 17:05 32.701049 -96.574092 222 2999ft 186kts
24-Mar-20 17:06 32.667640 -96.618445 264 2997ft 178kts
24-Mar-20 17:07 32.683987 -96.669931 311 2433ft 167kts
24-Mar-20 17:08 32.717464 -96.708758 313 2009ft 167kts
24-Mar-20 17:09 32.750742 -96.747106 313 2012ft 161kts
24-Mar-20 17:10 32.782476 -96.783993 312 1862ft 152kts
24-Mar-20 17:11 32.812335 -96.818470 314 1110ft 148kts
24-Mar-20 17:12 32.840789 -96.851304 315 477ft 108kts
24-Mar-20 17:13 32.847851 -96.855216 80 477ft 14kts
24-Mar-20 17:14 32.847443 -96.850224 92 481ft 10kts
24-Mar-20 17:15 32.845718 -96.846294 173 483ft 9kts
24-Mar-20 17:17 32.845551 -96.848247 357 481ft 0kts
24-Mar-20 17:18 32.845551 -96.848247 357 481ft 0kts

Navigation Log

Ident Type
Flight plan parsing failed, navigation log unavailable